Melbourne International Airport
KMLB : rendu visible

Aérodrome :











RETROUVEZ-NOUS SUR...

 
LOGIN :

S'inscrire | Disclaimer

   EN    FR    IT 

 









Légende :    VFR   VFR Marginal   IFR   IFR Intensif   IFR Très Intensif
Visi : 
Plafond : 
>= 8 km
>= 3000ft
5 à 8 km
1000 à 3000 ft
1500m à 5 km
500 à 1000 ft
800 à 1500m
200 à 500 ft
< 800m
< 200 ft
Symboles :   Orages  Brouillard  Fortes neiges  Fortes précipitations  Vent > 20 kt






- Altitude de l'aérodrome : 33 ft
- Code IATA : MLB


KMLB - Melbourne International

DERNIER METAR :
  • 052227Z 00000KT 10SM VCTS FEW090 BKN110 23/22 A2999 RMK AO2 LTG DSNT ALQDS RAE16 TSE21 P0000 T02330222 $

METARs EXPIRÉS :
  • 052153Z 00000KT 10SM -TSRA FEW080 FEW095 BKN110 23/23 A2999 RMK AO2 LTG DSNT ALQDS TSE2056B39 SLP154 P0032 T02330228 $
  • 052136Z 15006KT 4SM RA BR SCT038 SCT060 BKN085 23/23 A2997 RMK AO2 LTG DSNT N AND NE AND SW TSE2056 P0032 T02330228 $
  • 052116Z VRB05G24KT 1SM R09R/2000VP6000FT VCTS +RA BR FEW005 BKN035 OVC070 24/22 A2999 RMK AO2 LTG DSNT ALQDS TSE2056 P0026 T02390217 $
  • 052107Z 30009KT 2SM R09R/3000VP6000FT VCTS -RA BR FEW005 BKN035 OVC070 23/23 A3000 RMK AO2 LTG DSNT ALQDS TSE2056 P0005 T02330233 $
  • 052041Z 32010KT 1 1/2SM R09R/3000VP6000FT +TSRA BR BKN030 OVC039 23/23 A2999 RMK AO2 PK WND 15036/2013 WSHFT 1957 LTG DSNT ALQDS RAB00 TS SW-NE MOV N LTGICCCCG P0151 T02330233 $
  • 052023Z 00000KT 1/4SM R09R/1200VP6000FT +TSRA FG BKN013 BKN020 OVC050 24/23 A2999 RMK AO2 PK WND 15036/2013 WSHFT 1957 LTG DSNT NW-E RAB00 P0130 T02390228 $
  • 052009Z 19018G34KT 1/2SM R09R/1400VP6000FT TSRA FG SCT020 BKN030 BKN047 26/24 A2998 RMK AO2 PK WND 15034/2004 LTG DSNT ALQDS RAB00 PRESRR P0021 T02610239 $
  • 051934Z 03012KT 8SM R09R/1400VP6000FT -TSRA SCT026 BKN039 OVC100 26/24 A2994 RMK AO2 WSHFT 1857 LTG DSNT ALQDS RAB07 TSB32 P0057 T02610244 $

TAF KMLB
Valide du 05 à 18h jusqu'au 06 à 18h UTC


051741Z 0518/0618 25006KT P6SM SCT040 BKN250
FM051900 11008KT P6SM VCTS SCT035CB SCT060
TEMPO 0519/0522 VRB18G25KT 3SM TSRA BKN035CB BKN050 OVC080
FM052300 VRB04KT P6SM VCSH SCT035 BKN100
FM060200 VRB04KT P6SM SCT120 BKN250
FM061500 21005KT P6SM SCT035 BKN250
FM061700 16006KT P6SM SCT035 BKN200
FIR KZMA / Amérique du Nord



MET'MAP, la Météo Aéronautique d'un coup d'oeil ! - Copyright ORBIFLY Décembre 2007 - Disclaimer

ORBIFLY MET'MAP TEAM :

Programmation & Développement : Alexandra Zaïnal
Sur une idée originale de : Baudouin d'Aumeries
Assistance à la programmation : Marc-Olivier Méhu
Soutien technique & logistique : Manuel Goepfert

Contact : metmap@orbifly.com




SOURCES & CREDITS :

   NOAA       Earth
Advisory